MMZC/ZCL METAR and TAF weather

Enter ICAO airport designator
Station Type Date Time Source
MMZC METAR 2019/04/25 06:51 UTC NOAA

MMZC 250651Z 20010KT 10SM BKN200 13/M08 A3019 RMK 8/001


Station Type Date Time Source
MMZC Decoded METAR 2019/04/25 06:51 UTC NOAA

Zacatecas Airport, Mexico (MMZC) 22-54N 102-41W
Apr 25, 2019 - 02:51 AM EDT / 2019.04.25 0651 UTC
Wind: from the SSW (200 degrees) at 12 MPH (10 KT):0
Visibility: 10 mile(s):0
Sky conditions: mostly cloudy
Temperature: 55 F (13 C)
Dew Point: 17 F (-8 C)
Relative Humidity: 22%
Pressure (altimeter): 30.19 in. Hg (1022 hPa)
ob: MMZC 250651Z 20010KT 10SM BKN200 13/M08 A3019 RMK 8/001
cycle: 7

Station Type Date Time Source
MMZC TAF 2019/04/25 06:52 UTC NOAA

TAF MMZC 250448Z 2506/2612 25012KT P6SM BKN250 TX24/2521Z TN12/2512Z
FM251800 35018KT P6SM BKN100 BKN250
FM260600 34006KT P6SM SCT030 BKN080
TEMPO 2608/2612 BKN020

Example: see airport list